sensor_id;sensor_type;location;lat;lon;timestamp;P1;durP1;ratioP1;P2;durP2;ratioP2
21848;SDS011;11089;49.852;19.700;2024-01-15T00:01:26;6.80;;;3.67;;
21848;SDS011;11089;49.852;19.700;2024-01-15T00:04:27;7.25;;;3.58;;
21848;SDS011;11089;49.852;19.700;2024-01-15T00:07:28;8.18;;;3.90;;
21848;SDS011;11089;49.852;19.700;2024-01-15T00:10:29;6.85;;;3.40;;
21848;SDS011;11089;49.852;19.700;2024-01-15T00:13:30;8.48;;;4.22;;
21848;SDS011;11089;49.852;19.700;2024-01-15T00:16:31;7.72;;;4.00;;
21848;SDS011;11089;49.852;19.700;2024-01-15T00:19:33;9.27;;;3.95;;
21848;SDS011;11089;49.852;19.700;2024-01-15T00:22:34;8.57;;;3.83;;
21848;SDS011;11089;49.852;19.700;2024-01-15T00:25:35;7.50;;;3.65;;
21848;SDS011;11089;49.852;19.700;2024-01-15T00:28:37;7.80;;;3.67;;
21848;SDS011;11089;49.852;19.700;2024-01-15T00:31:38;8.52;;;3.55;;
21848;SDS011;11089;49.852;19.700;2024-01-15T00:34:39;7.63;;;4.07;;
21848;SDS011;11089;49.852;19.700;2024-01-15T00:37:41;5.70;;;3.25;;
21848;SDS011;11089;49.852;19.700;2024-01-15T00:40:42;8.77;;;3.35;;
21848;SDS011;11089;49.852;19.700;2024-01-15T00:43:43;9.85;;;3.78;;
21848;SDS011;11089;49.852;19.700;2024-01-15T00:46:45;8.00;;;3.72;;
21848;SDS011;11089;49.852;19.700;2024-01-15T00:49:46;6.65;;;3.00;;
21848;SDS011;11089;49.852;19.700;2024-01-15T00:52:47;6.70;;;3.47;;
21848;SDS011;11089;49.852;19.700;2024-01-15T00:55:48;7.10;;;3.33;;
21848;SDS011;11089;49.852;19.700;2024-01-15T00:58:49;7.05;;;3.72;;
21848;SDS011;11089;49.852;19.700;2024-01-15T01:01:50;5.70;;;2.95;;
21848;SDS011;11089;49.852;19.700;2024-01-15T01:04:51;5.55;;;2.67;;
21848;SDS011;11089;49.852;19.700;2024-01-15T01:07:52;6.60;;;3.40;;
21848;SDS011;11089;49.852;19.700;2024-01-15T01:10:53;5.68;;;2.92;;
21848;SDS011;11089;49.852;19.700;2024-01-15T01:13:57;7.00;;;2.83;;
21848;SDS011;11089;49.852;19.700;2024-01-15T01:16:58;8.00;;;3.35;;
21848;SDS011;11089;49.852;19.700;2024-01-15T01:19:59;6.40;;;2.90;;
21848;SDS011;11089;49.852;19.700;2024-01-15T01:22:59;7.30;;;3.17;;
21848;SDS011;11089;49.852;19.700;2024-01-15T01:26:00;6.35;;;3.20;;
21848;SDS011;11089;49.852;19.700;2024-01-15T01:29:01;5.45;;;3.10;;
21848;SDS011;11089;49.852;19.700;2024-01-15T01:32:02;5.78;;;3.33;;
21848;SDS011;11089;49.852;19.700;2024-01-15T01:35:03;6.07;;;3.22;;
21848;SDS011;11089;49.852;19.700;2024-01-15T01:38:04;6.13;;;3.25;;
21848;SDS011;11089;49.852;19.700;2024-01-15T01:41:05;4.70;;;2.33;;
21848;SDS011;11089;49.852;19.700;2024-01-15T01:44:06;6.90;;;2.72;;
21848;SDS011;11089;49.852;19.700;2024-01-15T01:47:07;5.75;;;2.97;;
21848;SDS011;11089;49.852;19.700;2024-01-15T01:50:08;5.40;;;2.78;;
21848;SDS011;11089;49.852;19.700;2024-01-15T01:53:09;5.45;;;2.88;;
21848;SDS011;11089;49.852;19.700;2024-01-15T01:56:10;4.80;;;2.50;;
21848;SDS011;11089;49.852;19.700;2024-01-15T01:59:12;4.38;;;2.85;;
21848;SDS011;11089;49.852;19.700;2024-01-15T02:02:14;4.32;;;2.30;;
21848;SDS011;11089;49.852;19.700;2024-01-15T02:05:18;6.55;;;2.50;;
21848;SDS011;11089;49.852;19.700;2024-01-15T02:08:20;6.40;;;2.80;;
21848;SDS011;11089;49.852;19.700;2024-01-15T02:11:23;3.85;;;2.15;;
21848;SDS011;11089;49.852;19.700;2024-01-15T02:14:24;4.88;;;2.47;;
21848;SDS011;11089;49.852;19.700;2024-01-15T02:17:25;5.40;;;2.53;;
21848;SDS011;11089;49.852;19.700;2024-01-15T02:20:26;7.25;;;2.65;;
21848;SDS011;11089;49.852;19.700;2024-01-15T02:23:27;4.43;;;2.45;;
21848;SDS011;11089;49.852;19.700;2024-01-15T02:26:27;5.05;;;2.47;;
21848;SDS011;11089;49.852;19.700;2024-01-15T02:29:28;4.18;;;2.35;;
21848;SDS011;11089;49.852;19.700;2024-01-15T02:32:29;8.43;;;2.97;;
21848;SDS011;11089;49.852;19.700;2024-01-15T02:35:30;6.45;;;2.88;;
21848;SDS011;11089;49.852;19.700;2024-01-15T02:38:31;4.78;;;2.80;;
21848;SDS011;11089;49.852;19.700;2024-01-15T02:41:32;5.57;;;2.70;;
21848;SDS011;11089;49.852;19.700;2024-01-15T02:44:33;7.30;;;2.85;;
21848;SDS011;11089;49.852;19.700;2024-01-15T02:47:34;6.30;;;2.78;;
21848;SDS011;11089;49.852;19.700;2024-01-15T02:50:35;6.05;;;2.38;;
21848;SDS011;11089;49.852;19.700;2024-01-15T02:53:36;6.18;;;3.00;;
21848;SDS011;11089;49.852;19.700;2024-01-15T02:56:37;5.20;;;2.92;;
21848;SDS011;11089;49.852;19.700;2024-01-15T02:59:38;4.65;;;2.60;;
21848;SDS011;11089;49.852;19.700;2024-01-15T03:02:39;6.38;;;3.03;;
21848;SDS011;11089;49.852;19.700;2024-01-15T03:05:41;4.53;;;2.50;;
21848;SDS011;11089;49.852;19.700;2024-01-15T03:08:42;4.50;;;2.45;;
21848;SDS011;11089;49.852;19.700;2024-01-15T03:11:43;5.65;;;2.42;;
21848;SDS011;11089;49.852;19.700;2024-01-15T03:14:44;4.07;;;2.50;;
21848;SDS011;11089;49.852;19.700;2024-01-15T03:17:45;5.47;;;2.67;;
21848;SDS011;11089;49.852;19.700;2024-01-15T03:20:46;6.72;;;2.53;;
21848;SDS011;11089;49.852;19.700;2024-01-15T03:23:47;4.05;;;2.40;;
21848;SDS011;11089;49.852;19.700;2024-01-15T03:26:48;4.72;;;2.53;;
21848;SDS011;11089;49.852;19.700;2024-01-15T03:29:49;4.90;;;2.88;;
21848;SDS011;11089;49.852;19.700;2024-01-15T03:32:51;6.03;;;2.72;;
21848;SDS011;11089;49.852;19.700;2024-01-15T03:35:52;5.55;;;2.78;;
21848;SDS011;11089;49.852;19.700;2024-01-15T03:38:53;6.32;;;2.70;;
21848;SDS011;11089;49.852;19.700;2024-01-15T03:41:55;4.15;;;2.38;;
21848;SDS011;11089;49.852;19.700;2024-01-15T03:44:56;4.57;;;2.50;;
21848;SDS011;11089;49.852;19.700;2024-01-15T03:47:57;6.65;;;2.72;;
21848;SDS011;11089;49.852;19.700;2024-01-15T03:50:58;5.35;;;2.60;;
21848;SDS011;11089;49.852;19.700;2024-01-15T03:53:59;4.70;;;2.40;;
21848;SDS011;11089;49.852;19.700;2024-01-15T03:56:59;6.80;;;2.78;;
21848;SDS011;11089;49.852;19.700;2024-01-15T04:00:00;9.50;;;2.92;;
21848;SDS011;11089;49.852;19.700;2024-01-15T04:03:01;4.90;;;2.40;;
21848;SDS011;11089;49.852;19.700;2024-01-15T04:06:03;5.80;;;2.83;;
21848;SDS011;11089;49.852;19.700;2024-01-15T04:09:04;4.72;;;2.65;;
21848;SDS011;11089;49.852;19.700;2024-01-15T04:12:05;5.40;;;2.45;;
21848;SDS011;11089;49.852;19.700;2024-01-15T04:15:06;4.35;;;2.25;;
21848;SDS011;11089;49.852;19.700;2024-01-15T04:18:07;4.30;;;2.33;;
21848;SDS011;11089;49.852;19.700;2024-01-15T04:21:08;5.60;;;2.63;;
21848;SDS011;11089;49.852;19.700;2024-01-15T04:24:09;4.85;;;2.40;;
21848;SDS011;11089;49.852;19.700;2024-01-15T04:27:10;4.00;;;2.30;;
21848;SDS011;11089;49.852;19.700;2024-01-15T04:30:11;3.67;;;2.33;;
21848;SDS011;11089;49.852;19.700;2024-01-15T04:33:12;5.43;;;2.30;;
21848;SDS011;11089;49.852;19.700;2024-01-15T04:36:13;12.35;;;5.28;;
21848;SDS011;11089;49.852;19.700;2024-01-15T04:39:14;5.63;;;2.92;;
21848;SDS011;11089;49.852;19.700;2024-01-15T04:42:15;6.32;;;3.15;;
21848;SDS011;11089;49.852;19.700;2024-01-15T04:45:15;3.08;;;2.22;;
21848;SDS011;11089;49.852;19.700;2024-01-15T04:48:18;4.70;;;2.30;;
21848;SDS011;11089;49.852;19.700;2024-01-15T04:51:19;4.53;;;2.20;;
21848;SDS011;11089;49.852;19.700;2024-01-15T04:54:20;4.75;;;2.60;;
21848;SDS011;11089;49.852;19.700;2024-01-15T04:57:21;3.63;;;2.28;;
21848;SDS011;11089;49.852;19.700;2024-01-15T05:00:22;5.75;;;2.58;;
21848;SDS011;11089;49.852;19.700;2024-01-15T05:03:22;4.68;;;2.50;;
21848;SDS011;11089;49.852;19.700;2024-01-15T05:06:23;3.63;;;2.35;;
21848;SDS011;11089;49.852;19.700;2024-01-15T05:09:24;5.80;;;2.83;;
21848;SDS011;11089;49.852;19.700;2024-01-15T05:12:25;5.75;;;2.90;;
21848;SDS011;11089;49.852;19.700;2024-01-15T05:15:26;5.32;;;2.65;;
21848;SDS011;11089;49.852;19.700;2024-01-15T05:18:27;6.50;;;3.08;;
21848;SDS011;11089;49.852;19.700;2024-01-15T05:21:28;5.97;;;2.70;;
21848;SDS011;11089;49.852;19.700;2024-01-15T05:24:29;6.43;;;3.00;;
21848;SDS011;11089;49.852;19.700;2024-01-15T05:27:30;6.32;;;2.97;;
21848;SDS011;11089;49.852;19.700;2024-01-15T05:30:31;4.68;;;2.60;;
21848;SDS011;11089;49.852;19.700;2024-01-15T05:33:32;5.90;;;2.83;;
21848;SDS011;11089;49.852;19.700;2024-01-15T05:36:33;4.68;;;2.67;;
21848;SDS011;11089;49.852;19.700;2024-01-15T05:39:34;4.82;;;2.92;;
21848;SDS011;11089;49.852;19.700;2024-01-15T05:42:35;5.97;;;3.25;;
21848;SDS011;11089;49.852;19.700;2024-01-15T05:45:37;5.28;;;2.80;;
21848;SDS011;11089;49.852;19.700;2024-01-15T05:48:39;4.57;;;2.28;;
21848;SDS011;11089;49.852;19.700;2024-01-15T05:51:40;5.22;;;2.60;;
21848;SDS011;11089;49.852;19.700;2024-01-15T05:54:41;6.95;;;3.08;;
21848;SDS011;11089;49.852;19.700;2024-01-15T05:57:42;6.70;;;3.28;;
21848;SDS011;11089;49.852;19.700;2024-01-15T06:00:43;8.23;;;3.58;;
21848;SDS011;11089;49.852;19.700;2024-01-15T06:03:44;6.80;;;3.15;;
21848;SDS011;11089;49.852;19.700;2024-01-15T06:06:45;7.78;;;3.05;;
21848;SDS011;11089;49.852;19.700;2024-01-15T06:09:46;7.93;;;3.42;;
21848;SDS011;11089;49.852;19.700;2024-01-15T06:12:47;9.82;;;3.17;;
21848;SDS011;11089;49.852;19.700;2024-01-15T06:15:48;9.38;;;3.83;;
21848;SDS011;11089;49.852;19.700;2024-01-15T06:18:49;8.27;;;3.63;;
21848;SDS011;11089;49.852;19.700;2024-01-15T06:21:50;7.03;;;3.47;;
21848;SDS011;11089;49.852;19.700;2024-01-15T06:24:51;9.63;;;5.07;;
21848;SDS011;11089;49.852;19.700;2024-01-15T06:27:52;12.65;;;6.68;;
21848;SDS011;11089;49.852;19.700;2024-01-15T06:30:52;18.08;;;7.78;;
21848;SDS011;11089;49.852;19.700;2024-01-15T06:33:53;27.40;;;11.60;;
21848;SDS011;11089;49.852;19.700;2024-01-15T06:36:55;15.10;;;6.65;;
21848;SDS011;11089;49.852;19.700;2024-01-15T06:39:56;11.05;;;5.15;;
21848;SDS011;11089;49.852;19.700;2024-01-15T06:42:57;12.63;;;5.68;;
21848;SDS011;11089;49.852;19.700;2024-01-15T06:45:57;13.80;;;7.43;;
21848;SDS011;11089;49.852;19.700;2024-01-15T06:48:58;22.42;;;9.40;;
21848;SDS011;11089;49.852;19.700;2024-01-15T06:51:59;17.20;;;7.15;;
21848;SDS011;11089;49.852;19.700;2024-01-15T06:55:00;10.98;;;5.65;;
21848;SDS011;11089;49.852;19.700;2024-01-15T06:58:01;13.32;;;5.35;;
21848;SDS011;11089;49.852;19.700;2024-01-15T07:01:02;12.98;;;6.22;;
21848;SDS011;11089;49.852;19.700;2024-01-15T07:04:03;11.52;;;5.50;;
21848;SDS011;11089;49.852;19.700;2024-01-15T07:07:03;16.42;;;6.53;;
21848;SDS011;11089;49.852;19.700;2024-01-15T07:10:05;13.00;;;5.93;;
21848;SDS011;11089;49.852;19.700;2024-01-15T07:13:06;23.02;;;9.20;;
21848;SDS011;11089;49.852;19.700;2024-01-15T07:16:07;20.05;;;8.30;;
21848;SDS011;11089;49.852;19.700;2024-01-15T07:19:08;15.80;;;6.35;;
21848;SDS011;11089;49.852;19.700;2024-01-15T07:22:09;19.55;;;7.55;;
21848;SDS011;11089;49.852;19.700;2024-01-15T07:25:10;16.45;;;6.43;;
21848;SDS011;11089;49.852;19.700;2024-01-15T07:28:13;15.57;;;6.25;;
21848;SDS011;11089;49.852;19.700;2024-01-15T07:31:15;21.63;;;7.35;;
21848;SDS011;11089;49.852;19.700;2024-01-15T07:34:17;18.05;;;6.82;;
21848;SDS011;11089;49.852;19.700;2024-01-15T07:37:18;16.17;;;6.45;;
21848;SDS011;11089;49.852;19.700;2024-01-15T07:40:19;19.33;;;7.55;;
21848;SDS011;11089;49.852;19.700;2024-01-15T07:43:21;26.00;;;9.23;;
21848;SDS011;11089;49.852;19.700;2024-01-15T07:46:23;21.23;;;8.32;;
21848;SDS011;11089;49.852;19.700;2024-01-15T07:49:25;29.73;;;10.00;;
21848;SDS011;11089;49.852;19.700;2024-01-15T07:52:26;21.15;;;8.88;;
21848;SDS011;11089;49.852;19.700;2024-01-15T07:55:27;32.72;;;14.02;;
21848;SDS011;11089;49.852;19.700;2024-01-15T07:58:28;21.27;;;10.10;;
21848;SDS011;11089;49.852;19.700;2024-01-15T08:01:29;22.10;;;9.57;;
21848;SDS011;11089;49.852;19.700;2024-01-15T08:04:30;20.98;;;9.23;;
21848;SDS011;11089;49.852;19.700;2024-01-15T08:07:31;18.58;;;7.80;;
21848;SDS011;11089;49.852;19.700;2024-01-15T08:10:31;15.68;;;7.50;;
21848;SDS011;11089;49.852;19.700;2024-01-15T08:13:33;15.48;;;7.32;;
21848;SDS011;11089;49.852;19.700;2024-01-15T08:16:34;18.42;;;7.60;;
21848;SDS011;11089;49.852;19.700;2024-01-15T08:19:35;19.45;;;8.82;;
21848;SDS011;11089;49.852;19.700;2024-01-15T08:22:36;14.80;;;6.57;;
21848;SDS011;11089;49.852;19.700;2024-01-15T08:25:38;14.85;;;6.97;;
21848;SDS011;11089;49.852;19.700;2024-01-15T08:28:39;30.63;;;10.65;;
21848;SDS011;11089;49.852;19.700;2024-01-15T08:31:40;71.70;;;21.67;;
21848;SDS011;11089;49.852;19.700;2024-01-15T08:34:41;24.75;;;10.23;;
21848;SDS011;11089;49.852;19.700;2024-01-15T08:37:43;19.13;;;7.32;;
21848;SDS011;11089;49.852;19.700;2024-01-15T08:40:44;20.75;;;7.90;;
21848;SDS011;11089;49.852;19.700;2024-01-15T08:43:45;18.02;;;7.75;;
21848;SDS011;11089;49.852;19.700;2024-01-15T08:46:46;17.60;;;8.05;;
21848;SDS011;11089;49.852;19.700;2024-01-15T08:49:47;21.52;;;9.13;;
21848;SDS011;11089;49.852;19.700;2024-01-15T08:52:48;19.38;;;8.20;;
21848;SDS011;11089;49.852;19.700;2024-01-15T08:55:49;18.38;;;9.00;;
21848;SDS011;11089;49.852;19.700;2024-01-15T08:58:50;19.38;;;9.30;;
21848;SDS011;11089;49.852;19.700;2024-01-15T09:01:52;15.60;;;7.97;;
21848;SDS011;11089;49.852;19.700;2024-01-15T09:04:53;15.13;;;7.78;;
21848;SDS011;11089;49.852;19.700;2024-01-15T09:07:54;12.57;;;6.70;;
21848;SDS011;11089;49.852;19.700;2024-01-15T09:10:55;14.23;;;7.15;;
21848;SDS011;11089;49.852;19.700;2024-01-15T09:13:56;15.63;;;7.70;;
21848;SDS011;11089;49.852;19.700;2024-01-15T09:16:57;20.65;;;7.90;;
21848;SDS011;11089;49.852;19.700;2024-01-15T09:19:58;33.70;;;12.45;;
21848;SDS011;11089;49.852;19.700;2024-01-15T09:22:58;26.67;;;11.68;;
21848;SDS011;11089;49.852;19.700;2024-01-15T09:25:59;16.33;;;7.20;;
21848;SDS011;11089;49.852;19.700;2024-01-15T09:29:00;22.02;;;8.10;;
21848;SDS011;11089;49.852;19.700;2024-01-15T09:32:01;19.33;;;8.25;;
21848;SDS011;11089;49.852;19.700;2024-01-15T09:35:03;19.45;;;8.45;;
21848;SDS011;11089;49.852;19.700;2024-01-15T09:38:05;21.35;;;9.52;;
21848;SDS011;11089;49.852;19.700;2024-01-15T09:41:06;23.10;;;8.98;;
21848;SDS011;11089;49.852;19.700;2024-01-15T09:44:07;22.20;;;9.70;;
21848;SDS011;11089;49.852;19.700;2024-01-15T09:47:08;27.20;;;11.80;;
21848;SDS011;11089;49.852;19.700;2024-01-15T09:50:10;23.83;;;9.55;;
21848;SDS011;11089;49.852;19.700;2024-01-15T09:53:10;16.15;;;7.90;;
21848;SDS011;11089;49.852;19.700;2024-01-15T09:56:13;15.90;;;7.57;;
21848;SDS011;11089;49.852;19.700;2024-01-15T09:59:16;18.10;;;8.73;;
21848;SDS011;11089;49.852;19.700;2024-01-15T10:02:18;21.58;;;9.75;;
21848;SDS011;11089;49.852;19.700;2024-01-15T10:05:19;18.17;;;8.60;;
21848;SDS011;11089;49.852;19.700;2024-01-15T10:08:20;20.83;;;8.18;;
21848;SDS011;11089;49.852;19.700;2024-01-15T10:11:23;15.32;;;7.43;;
21848;SDS011;11089;49.852;19.700;2024-01-15T10:14:24;16.55;;;7.55;;
21848;SDS011;11089;49.852;19.700;2024-01-15T10:17:25;18.00;;;8.93;;
21848;SDS011;11089;49.852;19.700;2024-01-15T10:20:28;16.42;;;8.23;;
21848;SDS011;11089;49.852;19.700;2024-01-15T10:23:28;15.13;;;7.80;;
21848;SDS011;11089;49.852;19.700;2024-01-15T10:26:32;21.17;;;9.23;;
21848;SDS011;11089;49.852;19.700;2024-01-15T10:29:33;41.70;;;14.50;;
21848;SDS011;11089;49.852;19.700;2024-01-15T10:32:33;22.05;;;9.18;;
21848;SDS011;11089;49.852;19.700;2024-01-15T10:35:34;20.45;;;9.05;;
21848;SDS011;11089;49.852;19.700;2024-01-15T10:38:35;19.52;;;8.75;;
21848;SDS011;11089;49.852;19.700;2024-01-15T10:41:37;19.52;;;7.88;;
21848;SDS011;11089;49.852;19.700;2024-01-15T10:44:37;19.17;;;8.30;;
21848;SDS011;11089;49.852;19.700;2024-01-15T10:47:38;17.85;;;7.88;;
21848;SDS011;11089;49.852;19.700;2024-01-15T10:50:40;21.67;;;8.75;;
21848;SDS011;11089;49.852;19.700;2024-01-15T10:53:42;19.05;;;7.80;;
21848;SDS011;11089;49.852;19.700;2024-01-15T10:56:44;20.30;;;8.80;;
21848;SDS011;11089;49.852;19.700;2024-01-15T10:59:47;22.17;;;8.75;;
21848;SDS011;11089;49.852;19.700;2024-01-15T11:02:47;18.75;;;8.82;;
21848;SDS011;11089;49.852;19.700;2024-01-15T11:05:49;18.88;;;8.50;;
21848;SDS011;11089;49.852;19.700;2024-01-15T11:08:51;18.77;;;9.07;;
21848;SDS011;11089;49.852;19.700;2024-01-15T11:12:06;19.73;;;8.55;;
21848;SDS011;11089;49.852;19.700;2024-01-15T11:15:16;21.15;;;8.75;;
21848;SDS011;11089;49.852;19.700;2024-01-15T11:18:21;20.23;;;9.07;;
21848;SDS011;11089;49.852;19.700;2024-01-15T11:21:23;19.60;;;7.93;;
21848;SDS011;11089;49.852;19.700;2024-01-15T11:24:33;18.75;;;8.98;;
21848;SDS011;11089;49.852;19.700;2024-01-15T11:30:51;19.40;;;8.43;;
21848;SDS011;11089;49.852;19.700;2024-01-15T11:33:54;16.45;;;8.07;;
21848;SDS011;11089;49.852;19.700;2024-01-15T11:40:01;20.80;;;9.82;;
21848;SDS011;11089;49.852;19.700;2024-01-15T11:43:04;21.90;;;9.70;;
21848;SDS011;11089;49.852;19.700;2024-01-15T11:46:12;20.45;;;8.45;;
21848;SDS011;11089;49.852;19.700;2024-01-15T11:49:13;21.00;;;8.95;;
21848;SDS011;11089;49.852;19.700;2024-01-15T11:52:38;16.15;;;8.20;;
21848;SDS011;11089;49.852;19.700;2024-01-15T11:55:40;18.98;;;8.35;;
21848;SDS011;11089;49.852;19.700;2024-01-15T11:58:45;27.33;;;10.95;;
21848;SDS011;11089;49.852;19.700;2024-01-15T12:01:46;20.58;;;9.55;;
21848;SDS011;11089;49.852;19.700;2024-01-15T12:04:47;21.08;;;9.68;;
21848;SDS011;11089;49.852;19.700;2024-01-15T12:07:48;20.35;;;9.20;;
21848;SDS011;11089;49.852;19.700;2024-01-15T12:10:50;18.42;;;7.82;;
21848;SDS011;11089;49.852;19.700;2024-01-15T12:13:51;14.88;;;7.60;;
21848;SDS011;11089;49.852;19.700;2024-01-15T12:16:53;16.23;;;6.55;;
21848;SDS011;11089;49.852;19.700;2024-01-15T12:19:55;16.00;;;7.03;;
21848;SDS011;11089;49.852;19.700;2024-01-15T12:22:57;17.50;;;7.95;;
21848;SDS011;11089;49.852;19.700;2024-01-15T12:25:58;20.85;;;8.93;;
21848;SDS011;11089;49.852;19.700;2024-01-15T12:29:02;21.70;;;10.25;;
21848;SDS011;11089;49.852;19.700;2024-01-15T12:32:04;23.38;;;10.02;;
21848;SDS011;11089;49.852;19.700;2024-01-15T12:35:10;20.30;;;8.70;;
21848;SDS011;11089;49.852;19.700;2024-01-15T12:38:11;19.10;;;8.95;;
21848;SDS011;11089;49.852;19.700;2024-01-15T12:41:12;24.23;;;10.07;;
21848;SDS011;11089;49.852;19.700;2024-01-15T12:44:13;21.30;;;8.82;;
21848;SDS011;11089;49.852;19.700;2024-01-15T12:47:15;21.40;;;9.57;;
21848;SDS011;11089;49.852;19.700;2024-01-15T12:50:19;22.40;;;9.48;;
21848;SDS011;11089;49.852;19.700;2024-01-15T12:53:20;19.38;;;8.18;;
21848;SDS011;11089;49.852;19.700;2024-01-15T12:56:23;19.50;;;8.63;;
21848;SDS011;11089;49.852;19.700;2024-01-15T12:59:24;18.40;;;8.88;;
21848;SDS011;11089;49.852;19.700;2024-01-15T13:02:25;19.27;;;8.68;;
21848;SDS011;11089;49.852;19.700;2024-01-15T13:05:26;18.42;;;8.25;;
21848;SDS011;11089;49.852;19.700;2024-01-15T13:08:29;17.38;;;7.55;;
21848;SDS011;11089;49.852;19.700;2024-01-15T13:11:29;17.02;;;8.43;;
21848;SDS011;11089;49.852;19.700;2024-01-15T13:14:31;17.73;;;8.13;;
21848;SDS011;11089;49.852;19.700;2024-01-15T13:17:32;17.42;;;7.35;;
21848;SDS011;11089;49.852;19.700;2024-01-15T13:20:33;16.30;;;7.93;;
21848;SDS011;11089;49.852;19.700;2024-01-15T13:23:34;17.02;;;8.18;;
21848;SDS011;11089;49.852;19.700;2024-01-15T13:26:35;19.60;;;8.68;;
21848;SDS011;11089;49.852;19.700;2024-01-15T13:29:36;17.88;;;8.20;;
21848;SDS011;11089;49.852;19.700;2024-01-15T13:32:38;20.33;;;8.77;;
21848;SDS011;11089;49.852;19.700;2024-01-15T13:35:39;20.70;;;8.90;;
21848;SDS011;11089;49.852;19.700;2024-01-15T13:38:40;17.95;;;8.25;;
21848;SDS011;11089;49.852;19.700;2024-01-15T13:41:42;19.65;;;8.13;;
21848;SDS011;11089;49.852;19.700;2024-01-15T13:44:44;21.55;;;8.90;;
21848;SDS011;11089;49.852;19.700;2024-01-15T13:47:45;25.08;;;9.77;;
21848;SDS011;11089;49.852;19.700;2024-01-15T13:50:46;24.75;;;10.50;;
21848;SDS011;11089;49.852;19.700;2024-01-15T13:53:47;17.95;;;8.45;;
21848;SDS011;11089;49.852;19.700;2024-01-15T13:56:48;22.00;;;8.55;;
21848;SDS011;11089;49.852;19.700;2024-01-15T13:59:50;22.40;;;9.43;;
21848;SDS011;11089;49.852;19.700;2024-01-15T14:02:51;23.73;;;10.23;;
21848;SDS011;11089;49.852;19.700;2024-01-15T14:05:52;24.23;;;9.43;;
21848;SDS011;11089;49.852;19.700;2024-01-15T14:08:53;20.05;;;9.18;;
21848;SDS011;11089;49.852;19.700;2024-01-15T14:11:54;18.75;;;8.27;;
21848;SDS011;11089;49.852;19.700;2024-01-15T14:14:55;24.27;;;9.85;;
21848;SDS011;11089;49.852;19.700;2024-01-15T14:17:56;31.85;;;15.07;;
21848;SDS011;11089;49.852;19.700;2024-01-15T14:20:58;25.15;;;10.45;;
21848;SDS011;11089;49.852;19.700;2024-01-15T14:23:59;29.50;;;11.00;;
21848;SDS011;11089;49.852;19.700;2024-01-15T14:27:00;28.00;;;10.05;;
21848;SDS011;11089;49.852;19.700;2024-01-15T14:30:01;22.95;;;9.70;;
21848;SDS011;11089;49.852;19.700;2024-01-15T14:33:03;41.55;;;14.35;;
21848;SDS011;11089;49.852;19.700;2024-01-15T14:36:05;28.10;;;10.45;;
21848;SDS011;11089;49.852;19.700;2024-01-15T14:39:06;23.17;;;8.63;;
21848;SDS011;11089;49.852;19.700;2024-01-15T14:42:07;21.00;;;8.52;;
21848;SDS011;11089;49.852;19.700;2024-01-15T14:45:08;40.70;;;14.40;;
21848;SDS011;11089;49.852;19.700;2024-01-15T14:48:11;25.08;;;9.40;;
21848;SDS011;11089;49.852;19.700;2024-01-15T14:51:13;21.65;;;8.43;;
21848;SDS011;11089;49.852;19.700;2024-01-15T14:54:14;19.95;;;7.90;;
21848;SDS011;11089;49.852;19.700;2024-01-15T14:57:15;17.85;;;7.40;;
21848;SDS011;11089;49.852;19.700;2024-01-15T15:00:17;14.80;;;7.05;;
21848;SDS011;11089;49.852;19.700;2024-01-15T15:03:18;16.23;;;7.30;;
21848;SDS011;11089;49.852;19.700;2024-01-15T15:06:21;16.70;;;7.80;;
21848;SDS011;11089;49.852;19.700;2024-01-15T15:09:28;17.85;;;7.07;;
21848;SDS011;11089;49.852;19.700;2024-01-15T15:12:29;21.75;;;8.93;;
21848;SDS011;11089;49.852;19.700;2024-01-15T15:15:31;18.55;;;7.95;;
21848;SDS011;11089;49.852;19.700;2024-01-15T15:18:32;27.00;;;10.27;;
21848;SDS011;11089;49.852;19.700;2024-01-15T15:21:33;37.00;;;13.18;;
21848;SDS011;11089;49.852;19.700;2024-01-15T15:24:34;28.67;;;9.80;;
21848;SDS011;11089;49.852;19.700;2024-01-15T15:27:37;26.98;;;9.98;;
21848;SDS011;11089;49.852;19.700;2024-01-15T15:30:38;18.63;;;7.60;;
21848;SDS011;11089;49.852;19.700;2024-01-15T15:33:39;27.92;;;9.18;;
21848;SDS011;11089;49.852;19.700;2024-01-15T15:36:40;36.00;;;13.30;;
21848;SDS011;11089;49.852;19.700;2024-01-15T15:39:41;28.75;;;9.98;;
21848;SDS011;11089;49.852;19.700;2024-01-15T15:42:43;23.25;;;8.48;;
21848;SDS011;11089;49.852;19.700;2024-01-15T15:45:44;19.77;;;7.78;;
21848;SDS011;11089;49.852;19.700;2024-01-15T15:48:45;25.15;;;9.88;;
21848;SDS011;11089;49.852;19.700;2024-01-15T15:51:46;25.85;;;8.48;;
21848;SDS011;11089;49.852;19.700;2024-01-15T15:54:47;29.67;;;10.65;;
21848;SDS011;11089;49.852;19.700;2024-01-15T15:57:48;27.73;;;10.65;;
21848;SDS011;11089;49.852;19.700;2024-01-15T16:00:49;29.85;;;9.65;;
21848;SDS011;11089;49.852;19.700;2024-01-15T16:03:50;36.35;;;12.50;;
21848;SDS011;11089;49.852;19.700;2024-01-15T16:06:52;32.08;;;11.55;;
21848;SDS011;11089;49.852;19.700;2024-01-15T16:09:56;32.83;;;13.93;;
21848;SDS011;11089;49.852;19.700;2024-01-15T16:12:57;35.50;;;11.70;;
21848;SDS011;11089;49.852;19.700;2024-01-15T16:15:58;36.72;;;14.35;;
21848;SDS011;11089;49.852;19.700;2024-01-15T16:19:00;29.65;;;10.30;;
21848;SDS011;11089;49.852;19.700;2024-01-15T16:22:01;24.67;;;10.00;;
21848;SDS011;11089;49.852;19.700;2024-01-15T16:25:04;28.65;;;10.68;;
21848;SDS011;11089;49.852;19.700;2024-01-15T16:28:05;35.03;;;12.25;;
21848;SDS011;11089;49.852;19.700;2024-01-15T16:31:06;24.92;;;9.88;;
21848;SDS011;11089;49.852;19.700;2024-01-15T16:34:08;21.25;;;8.52;;
21848;SDS011;11089;49.852;19.700;2024-01-15T16:37:10;24.25;;;9.35;;
21848;SDS011;11089;49.852;19.700;2024-01-15T16:40:11;21.60;;;9.30;;
21848;SDS011;11089;49.852;19.700;2024-01-15T16:43:13;23.95;;;10.15;;
21848;SDS011;11089;49.852;19.700;2024-01-15T16:46:14;22.58;;;9.27;;
21848;SDS011;11089;49.852;19.700;2024-01-15T16:49:15;26.80;;;9.75;;
21848;SDS011;11089;49.852;19.700;2024-01-15T16:52:16;29.42;;;11.18;;
21848;SDS011;11089;49.852;19.700;2024-01-15T16:55:17;28.20;;;10.70;;
21848;SDS011;11089;49.852;19.700;2024-01-15T16:58:18;25.55;;;9.43;;
21848;SDS011;11089;49.852;19.700;2024-01-15T17:01:20;25.90;;;9.52;;
21848;SDS011;11089;49.852;19.700;2024-01-15T17:04:21;23.85;;;9.35;;
21848;SDS011;11089;49.852;19.700;2024-01-15T17:07:22;25.40;;;9.63;;
21848;SDS011;11089;49.852;19.700;2024-01-15T17:10:23;24.15;;;9.32;;
21848;SDS011;11089;49.852;19.700;2024-01-15T17:13:24;22.67;;;9.07;;
21848;SDS011;11089;49.852;19.700;2024-01-15T17:16:25;22.02;;;9.07;;
21848;SDS011;11089;49.852;19.700;2024-01-15T17:19:26;20.42;;;9.20;;
21848;SDS011;11089;49.852;19.700;2024-01-15T17:22:27;21.23;;;8.73;;
21848;SDS011;11089;49.852;19.700;2024-01-15T17:25:29;27.00;;;9.27;;
21848;SDS011;11089;49.852;19.700;2024-01-15T17:28:30;25.02;;;9.30;;
21848;SDS011;11089;49.852;19.700;2024-01-15T17:31:31;23.85;;;9.13;;
21848;SDS011;11089;49.852;19.700;2024-01-15T17:34:32;32.05;;;10.63;;
21848;SDS011;11089;49.852;19.700;2024-01-15T17:37:33;21.23;;;9.02;;
21848;SDS011;11089;49.852;19.700;2024-01-15T17:40:34;25.55;;;9.52;;
21848;SDS011;11089;49.852;19.700;2024-01-15T17:43:36;23.75;;;9.35;;
21848;SDS011;11089;49.852;19.700;2024-01-15T17:46:38;26.70;;;10.30;;
21848;SDS011;11089;49.852;19.700;2024-01-15T17:49:39;39.42;;;12.43;;